createdAt,value
2019-01-14T00:00:45.720Z,10.10
2019-01-14T00:03:15.806Z,6.30
2019-01-14T00:05:49.187Z,14.67
2019-01-14T00:08:19.789Z,13.33
2019-01-14T00:10:51.748Z,15.80
2019-01-14T00:13:52.166Z,12.03
2019-01-14T00:16:45.108Z,6.00
2019-01-14T00:22:30.858Z,13.10
2019-01-14T00:28:43.071Z,11.07
2019-01-14T00:31:19.311Z,15.93
2019-01-14T00:37:07.253Z,7.00
2019-01-14T00:39:56.141Z,14.67
2019-01-14T00:48:53.530Z,11.83
2019-01-14T00:51:42.323Z,12.53
2019-01-14T00:54:31.145Z,10.50
2019-01-14T00:57:19.883Z,11.23
2019-01-14T01:03:10.408Z,11.80
2019-01-14T01:08:58.466Z,15.60
2019-01-14T01:17:27.964Z,13.43
2019-01-14T01:23:52.841Z,13.50
2019-01-14T01:26:48.412Z,14.97
2019-01-14T01:44:20.895Z,9.87
2019-01-14T01:47:09.715Z,14.70
2019-01-14T01:49:45.683Z,12.53
2019-01-14T01:52:15.387Z,12.10
2019-01-14T01:54:48.687Z,15.50
2019-01-14T01:57:18.510Z,10.53
2019-01-14T01:59:51.970Z,13.27
2019-01-14T02:02:21.817Z,10.53
2019-01-14T02:04:59.046Z,19.27
2019-01-14T02:07:28.828Z,9.17
2019-01-14T02:09:59.564Z,13.93
2019-01-14T02:12:29.547Z,18.00
2019-01-14T02:15:02.187Z,11.73
2019-01-14T02:17:31.893Z,15.20
2019-01-14T02:20:05.275Z,17.67
2019-01-14T02:22:35.158Z,21.93
2019-01-14T02:25:08.290Z,13.73
2019-01-14T02:27:57.026Z,16.83
2019-01-14T02:33:25.977Z,17.00
2019-01-14T02:36:14.723Z,13.30
2019-01-14T02:41:53.740Z,14.97
2019-01-14T02:44:23.837Z,19.50
2019-01-14T02:46:53.959Z,21.70
2019-01-14T02:49:23.762Z,12.27
2019-01-14T02:51:53.772Z,14.60
2019-01-14T02:54:23.836Z,14.37
2019-01-14T02:56:53.945Z,11.57
2019-01-14T02:59:26.913Z,15.10
2019-01-14T03:01:56.639Z,21.37
2019-01-14T03:04:29.517Z,10.17
2019-01-14T03:06:59.213Z,20.13
2019-01-14T03:09:31.788Z,14.60
2019-01-14T03:12:01.842Z,18.00
2019-01-14T03:14:34.588Z,15.13
2019-01-14T03:17:04.515Z,11.83
2019-01-14T03:19:37.700Z,11.20
2019-01-14T03:25:18.304Z,18.43
2019-01-14T03:28:07.127Z,15.60
2019-01-14T03:33:55.228Z,14.07
2019-01-14T03:36:25.245Z,12.17
2019-01-14T03:38:55.046Z,14.93
2019-01-14T03:42:02.595Z,13.10
2019-01-14T03:44:51.375Z,14.40
2019-01-14T03:50:54.377Z,13.97
2019-01-14T03:55:48.738Z,13.50
2019-01-14T03:58:29.902Z,12.73
2019-01-14T04:01:11.089Z,13.83
2019-01-14T04:03:52.714Z,12.23
2019-01-14T04:06:23.455Z,14.77
2019-01-14T04:08:53.626Z,16.53
2019-01-14T04:11:24.543Z,12.30
2019-01-14T04:13:54.308Z,10.43
2019-01-14T04:16:24.058Z,12.53
2019-01-14T04:18:53.774Z,14.27
2019-01-14T04:21:23.497Z,8.80
2019-01-14T04:23:53.486Z,13.30
2019-01-14T04:26:23.713Z,19.43
2019-01-14T04:28:53.863Z,9.63
2019-01-14T04:31:42.672Z,10.17
2019-01-14T04:34:17.985Z,11.67
2019-01-14T04:36:45.637Z,11.57
2019-01-14T04:39:15.439Z,12.87
2019-01-14T04:41:45.195Z,12.13
2019-01-14T04:44:15.216Z,11.30
2019-01-14T04:46:44.941Z,12.70
2019-01-14T04:49:14.786Z,19.93
2019-01-14T04:51:44.959Z,10.40
2019-01-14T04:54:14.652Z,15.27
2019-01-14T04:56:44.425Z,15.57
2019-01-14T04:59:14.429Z,14.60
2019-01-14T05:01:44.149Z,7.93
2019-01-14T05:04:13.915Z,9.70
2019-01-14T05:06:43.931Z,16.77
2019-01-14T05:09:13.683Z,9.60
2019-01-14T05:11:43.587Z,16.87
2019-01-14T05:14:13.560Z,10.53
2019-01-14T05:16:45.783Z,15.33
2019-01-14T05:19:15.552Z,13.07
2019-01-14T05:21:48.490Z,11.87
2019-01-14T05:24:18.247Z,13.17
2019-01-14T05:26:51.083Z,17.30
2019-01-14T05:29:21.168Z,7.07
2019-01-14T05:31:53.574Z,8.93
2019-01-14T05:34:23.358Z,15.00
2019-01-14T05:36:56.635Z,10.23
2019-01-14T05:39:26.388Z,9.83
2019-01-14T05:42:00.126Z,16.83
2019-01-14T05:44:29.863Z,11.00
2019-01-14T05:47:02.895Z,17.67
2019-01-14T05:49:32.943Z,12.07
2019-01-14T05:52:06.274Z,13.67
2019-01-14T05:54:36.015Z,14.90
2019-01-14T05:57:09.889Z,11.47
2019-01-14T05:59:39.648Z,12.20
2019-01-14T06:04:35.484Z,12.80
2019-01-14T06:07:05.302Z,12.40
2019-01-14T06:09:35.316Z,15.27
2019-01-14T06:12:05.121Z,9.53
2019-01-14T06:14:35.732Z,13.90
2019-01-14T06:17:05.682Z,9.80
2019-01-14T06:19:36.315Z,10.00
2019-01-14T06:22:06.386Z,11.80
2019-01-14T06:24:36.095Z,10.53
2019-01-14T06:27:05.887Z,13.20
2019-01-14T06:29:35.948Z,16.13
2019-01-14T06:32:05.667Z,13.33
2019-01-14T06:34:35.431Z,7.40
2019-01-14T06:37:05.736Z,9.33
2019-01-14T06:39:35.534Z,5.10
2019-01-14T06:42:07.508Z,6.90
2019-01-14T06:44:37.067Z,3.37
2019-01-14T06:47:06.842Z,3.60
2019-01-14T06:49:37.061Z,3.07
2019-01-14T06:52:07.095Z,6.20
2019-01-14T06:54:41.956Z,3.20
2019-01-14T06:57:12.045Z,3.70
2019-01-14T06:59:45.115Z,1.93
2019-01-14T07:02:14.889Z,5.03
2019-01-14T07:04:47.723Z,2.13
2019-01-14T07:07:17.538Z,4.20
2019-01-14T07:09:51.205Z,2.00
2019-01-14T07:12:21.279Z,2.63
2019-01-14T07:14:53.816Z,4.73
2019-01-14T07:17:23.619Z,2.20
2019-01-14T07:19:56.436Z,4.27
2019-01-14T07:22:26.262Z,3.33
2019-01-14T07:24:59.278Z,3.50
2019-01-14T07:27:29.041Z,2.13
2019-01-14T07:30:02.325Z,3.53
2019-01-14T07:32:32.379Z,3.03
2019-01-14T07:35:05.767Z,2.63
2019-01-14T07:37:35.676Z,1.63
2019-01-14T07:40:10.872Z,3.13
2019-01-14T07:42:40.695Z,2.23
2019-01-14T07:45:15.619Z,2.40
2019-01-14T07:47:45.685Z,0.80
2019-01-14T07:50:17.225Z,2.00
2019-01-14T07:52:47.137Z,2.87
2019-01-14T07:55:19.273Z,7.17
2019-01-14T07:57:49.338Z,2.33
2019-01-14T08:00:26.734Z,3.03
2019-01-14T08:02:56.908Z,6.60
2019-01-14T08:05:26.684Z,5.03
2019-01-14T08:11:00.414Z,6.20
2019-01-14T08:13:49.206Z,8.87
2019-01-14T08:16:31.232Z,10.03
2019-01-14T08:19:01.911Z,6.13
2019-01-14T08:21:43.643Z,11.10
2019-01-14T08:24:13.425Z,12.70
2019-01-14T08:26:43.217Z,13.90
2019-01-14T08:29:13.285Z,5.30
2019-01-14T08:31:43.179Z,11.80
2019-01-14T08:34:12.979Z,9.10
2019-01-14T08:36:42.717Z,10.77
2019-01-14T08:42:04.146Z,9.30
2019-01-14T08:44:44.117Z,7.73
2019-01-14T08:47:14.279Z,4.00
2019-01-14T08:50:03.201Z,16.23
2019-01-14T08:52:33.347Z,6.13
2019-01-14T08:55:03.151Z,4.77
2019-01-14T08:57:32.999Z,7.03
2019-01-14T09:02:43.586Z,9.63
2019-01-14T09:05:13.866Z,6.47
2019-01-14T09:07:43.921Z,5.13
2019-01-14T09:10:19.236Z,4.27
2019-01-14T09:12:49.501Z,7.73
2019-01-14T09:15:19.273Z,6.27
2019-01-14T09:17:49.373Z,7.27
2019-01-14T09:20:22.115Z,5.77
2019-01-14T09:22:52.258Z,6.43
2019-01-14T09:25:22.045Z,6.43
2019-01-14T09:28:10.875Z,5.23
2019-01-14T09:30:40.642Z,3.77
2019-01-14T09:33:29.383Z,5.50
2019-01-14T09:35:59.304Z,8.00
2019-01-14T09:38:35.713Z,3.20
2019-01-14T09:41:01.709Z,4.50
2019-01-14T09:43:31.485Z,3.97
2019-01-14T09:46:01.500Z,3.07
2019-01-14T09:48:31.319Z,1.70
2019-01-14T09:51:01.132Z,1.47
2019-01-14T09:53:31.293Z,5.80
2019-01-14T09:56:01.169Z,6.77
2019-01-14T09:58:30.956Z,3.33
2019-01-14T10:01:01.123Z,2.23
2019-01-14T10:03:30.949Z,2.73
2019-01-14T10:06:00.730Z,1.10
2019-01-14T10:08:30.756Z,4.17
2019-01-14T10:11:00.653Z,1.57
2019-01-14T10:13:49.714Z,5.20
2019-01-14T10:16:38.773Z,4.47
2019-01-14T10:19:09.495Z,2.27
2019-01-14T10:21:39.600Z,2.57
2019-01-14T10:24:09.436Z,3.40
2019-01-14T10:26:58.262Z,3.23
2019-01-14T10:29:28.103Z,3.43
2019-01-14T10:31:57.993Z,3.27
2019-01-14T10:34:28.025Z,4.77
2019-01-14T10:36:58.059Z,2.40
2019-01-14T10:39:27.817Z,4.10
2019-01-14T10:41:57.623Z,5.60
2019-01-14T10:44:27.491Z,2.63
2019-01-14T10:46:57.584Z,4.97
2019-01-14T10:52:56.307Z,3.03
2019-01-14T10:55:26.118Z,3.07
2019-01-14T10:58:15.017Z,2.83
2019-01-14T11:00:44.810Z,3.83
2019-01-14T11:03:33.644Z,3.27
2019-01-14T11:06:03.726Z,1.83
2019-01-14T11:08:33.515Z,2.47
2019-01-14T11:11:22.289Z,2.47
2019-01-14T11:13:52.075Z,3.07
2019-01-14T11:16:23.124Z,2.57
2019-01-14T11:18:53.066Z,4.27
2019-01-14T11:21:22.888Z,5.50
2019-01-14T11:23:54.468Z,3.13
2019-01-14T11:29:52.894Z,5.83
2019-01-14T11:32:23.304Z,7.03
2019-01-14T11:34:53.728Z,4.83
2019-01-14T11:37:23.533Z,5.97
2019-01-14T11:39:53.863Z,2.97
2019-01-14T11:42:42.638Z,4.60
2019-01-14T11:45:13.474Z,5.80
2019-01-14T11:48:02.331Z,3.57
2019-01-14T11:50:32.244Z,4.70
2019-01-14T11:53:02.330Z,5.27
2019-01-14T11:55:32.287Z,9.40
2019-01-14T11:58:02.178Z,4.70
2019-01-14T12:00:50.919Z,6.97
2019-01-14T12:03:20.864Z,4.50
2019-01-14T12:05:51.160Z,4.23
2019-01-14T12:08:22.928Z,2.20
2019-01-14T12:11:11.446Z,5.00
2019-01-14T12:13:41.200Z,3.53
2019-01-14T12:16:11.327Z,1.23
2019-01-14T12:19:00.233Z,3.17
2019-01-14T12:21:30.351Z,0.80
2019-01-14T12:24:01.110Z,0.93
2019-01-14T12:26:30.864Z,0.80
2019-01-14T12:29:00.949Z,1.20
2019-01-14T12:31:30.763Z,1.23
2019-01-14T12:34:00.563Z,1.43
2019-01-14T12:36:30.602Z,3.23
2019-01-14T12:39:00.402Z,0.70
2019-01-14T12:41:30.255Z,0.53
2019-01-14T12:44:19.509Z,2.73
2019-01-14T12:46:49.491Z,3.73
2019-01-14T12:49:19.639Z,1.80
2019-01-14T12:51:49.487Z,1.77
2019-01-14T12:54:19.375Z,1.40
2019-01-14T12:56:49.476Z,1.70
2019-01-14T12:59:19.291Z,2.30
2019-01-14T13:01:49.235Z,3.63
2019-01-14T13:04:19.308Z,2.27
2019-01-14T13:06:49.110Z,3.47
2019-01-14T13:09:19.011Z,4.90
2019-01-14T13:11:49.137Z,2.77
2019-01-14T13:14:18.985Z,3.73
2019-01-14T13:16:48.775Z,2.77
2019-01-14T13:19:18.920Z,6.00
2019-01-14T13:21:48.720Z,0.87
2019-01-14T13:24:20.740Z,2.50
2019-01-14T13:26:53.141Z,5.50
2019-01-14T13:29:23.290Z,3.13
2019-01-14T13:31:53.189Z,1.87
2019-01-14T13:34:29.221Z,3.60
2019-01-14T13:36:59.562Z,3.30
2019-01-14T13:39:34.051Z,1.20
2019-01-14T13:42:02.576Z,3.70
2019-01-14T13:44:32.372Z,2.83
2019-01-14T13:47:02.159Z,3.20
2019-01-14T13:49:36.207Z,1.50
2019-01-14T13:52:06.121Z,1.73
2019-01-14T13:54:38.541Z,3.47
2019-01-14T13:57:08.755Z,0.80
2019-01-14T13:59:39.692Z,2.70
2019-01-14T14:02:09.521Z,1.90
2019-01-14T14:04:41.958Z,3.23
2019-01-14T14:07:11.846Z,5.83
2019-01-14T14:09:44.864Z,3.60
2019-01-14T14:12:14.912Z,1.73
2019-01-14T14:14:47.761Z,1.90
2019-01-14T14:17:17.548Z,1.40
2019-01-14T14:19:50.732Z,2.30
2019-01-14T14:22:20.725Z,2.07
2019-01-14T14:24:53.404Z,2.13
2019-01-14T14:27:24.246Z,1.83
2019-01-14T14:29:57.282Z,1.53
2019-01-14T14:32:27.094Z,1.43
2019-01-14T14:35:00.090Z,3.57
2019-01-14T14:37:30.296Z,3.70
2019-01-14T14:40:03.283Z,2.80
2019-01-14T14:42:33.212Z,2.10
2019-01-14T14:45:08.245Z,1.03
2019-01-14T14:47:38.041Z,1.80
2019-01-14T14:50:10.734Z,5.77
2019-01-14T14:52:40.635Z,2.10
2019-01-14T14:55:13.690Z,5.47
2019-01-14T14:57:44.070Z,6.93
2019-01-14T15:00:18.956Z,3.10
2019-01-14T15:02:49.059Z,4.93
2019-01-14T15:05:19.502Z,3.50
2019-01-14T15:07:49.483Z,5.67
2019-01-14T15:10:38.293Z,2.10
2019-01-14T15:13:08.074Z,4.67
2019-01-14T15:15:38.945Z,4.53
2019-01-14T15:18:27.931Z,3.30
2019-01-14T15:27:30.220Z,4.43
2019-01-14T15:29:59.998Z,4.63
2019-01-14T15:32:48.878Z,4.40
2019-01-14T15:35:18.709Z,3.93
2019-01-14T15:37:48.516Z,5.70
2019-01-14T15:40:21.299Z,2.77
2019-01-14T15:42:51.350Z,3.30
2019-01-14T15:45:21.947Z,6.00
2019-01-14T15:47:51.787Z,4.43
2019-01-14T15:50:40.525Z,6.03
2019-01-14T15:53:10.639Z,4.80
2019-01-14T15:55:59.402Z,3.27
2019-01-14T15:58:29.435Z,4.73
2019-01-14T16:01:01.585Z,3.20
2019-01-14T16:03:31.656Z,1.63
2019-01-14T16:06:20.528Z,3.57
2019-01-14T16:09:09.649Z,3.50
2019-01-14T16:11:39.764Z,3.60
2019-01-14T16:14:28.505Z,4.43
2019-01-14T16:16:58.727Z,5.60
2019-01-14T16:19:29.085Z,1.03
2019-01-14T16:22:00.041Z,3.20
2019-01-14T16:24:30.198Z,5.03
2019-01-14T16:27:19.162Z,2.10
2019-01-14T16:29:49.265Z,3.57
2019-01-14T16:32:19.243Z,6.00
2019-01-14T16:35:18.908Z,2.93
2019-01-14T16:38:07.905Z,3.77
2019-01-14T16:40:37.999Z,4.87
2019-01-14T16:43:26.767Z,3.53
2019-01-14T16:45:56.885Z,4.50
2019-01-14T16:48:26.730Z,4.93
2019-01-14T16:54:34.363Z,7.17
2019-01-14T16:57:04.707Z,5.37
2019-01-14T16:59:34.695Z,4.13
2019-01-14T17:02:04.853Z,2.23
2019-01-14T17:04:35.092Z,6.43
2019-01-14T17:07:05.213Z,4.73
2019-01-14T17:12:44.343Z,4.03
2019-01-14T17:18:06.527Z,3.20
2019-01-14T17:20:37.452Z,3.63
2019-01-14T17:23:22.315Z,5.13
2019-01-14T17:25:40.929Z,2.67
2019-01-14T17:28:11.782Z,4.80
2019-01-14T17:30:42.860Z,4.75
2019-01-14T17:33:13.462Z,7.90
2019-01-14T17:36:03.109Z,4.00
2019-01-14T17:38:46.053Z,4.77
2019-01-14T17:41:07.589Z,5.00
2019-01-14T17:47:07.381Z,3.00
2019-01-14T17:49:56.717Z,4.60
2019-01-14T17:53:19.842Z,5.10
2019-01-14T17:58:40.234Z,5.50
2019-01-14T18:05:07.527Z,5.00
2019-01-14T18:07:38.586Z,4.50
2019-01-14T18:10:28.695Z,2.17
2019-01-14T18:13:17.657Z,3.60
2019-01-14T18:15:48.007Z,3.13
2019-01-14T18:18:36.757Z,5.33
2019-01-14T18:21:13.807Z,3.80
2019-01-14T18:23:38.887Z,4.23
2019-01-14T18:26:27.675Z,3.80
2019-01-14T18:34:59.480Z,3.50
2019-01-14T18:37:29.834Z,5.63
2019-01-14T18:40:19.130Z,7.07
2019-01-14T18:42:49.707Z,5.40
2019-01-14T18:45:38.562Z,7.20
2019-01-14T18:48:27.517Z,6.13
2019-01-14T18:50:57.470Z,6.00
2019-01-14T18:53:46.345Z,3.67
2019-01-14T19:05:48.306Z,4.40
2019-01-14T19:08:37.391Z,3.63
2019-01-14T19:11:45.276Z,4.50
2019-01-14T19:17:52.420Z,3.30
2019-01-14T19:21:01.101Z,2.43
2019-01-14T19:35:59.709Z,5.07
2019-01-14T19:38:45.706Z,8.57
2019-01-14T19:41:24.440Z,6.77
2019-01-14T19:44:05.696Z,7.03
2019-01-14T19:47:10.703Z,7.63
2019-01-14T19:49:39.180Z,3.63
2019-01-14T19:52:20.516Z,6.00
2019-01-14T19:55:08.770Z,7.07
2019-01-14T20:01:15.957Z,5.37
2019-01-14T20:16:42.098Z,5.90
2019-01-14T20:19:14.976Z,6.37
2019-01-14T20:21:45.312Z,6.97
2019-01-14T20:24:17.101Z,8.37
2019-01-14T20:26:47.157Z,4.27
2019-01-14T20:29:19.862Z,6.53
2019-01-14T20:31:50.174Z,7.63
2019-01-14T20:34:24.581Z,2.57
2019-01-14T20:36:55.899Z,8.40
2019-01-14T20:39:26.090Z,4.67
2019-01-14T20:41:56.551Z,3.70
2019-01-14T20:50:54.598Z,6.60
2019-01-14T20:53:43.732Z,6.10
2019-01-14T20:56:14.023Z,6.33
2019-01-14T20:58:44.607Z,12.10
2019-01-14T21:01:14.570Z,4.47
2019-01-14T21:03:47.694Z,7.90
2019-01-14T21:10:10.649Z,4.63
2019-01-14T21:18:57.690Z,6.50
2019-01-14T21:21:47.923Z,3.33
2019-01-14T21:24:37.430Z,4.03
2019-01-14T21:27:26.327Z,6.17
2019-01-14T21:30:18.497Z,9.27
2019-01-14T21:33:28.301Z,5.73
2019-01-14T21:35:58.489Z,7.10
2019-01-14T21:41:37.871Z,5.50
2019-01-14T21:44:25.921Z,5.40
2019-01-14T21:47:15.181Z,3.90
2019-01-14T21:50:17.980Z,3.57
2019-01-14T21:52:54.696Z,10.77
2019-01-14T21:55:26.096Z,8.50
2019-01-14T21:58:15.059Z,7.03
2019-01-14T22:01:12.372Z,4.93
2019-01-14T22:04:01.264Z,4.97
2019-01-14T22:07:01.669Z,6.43
2019-01-14T22:09:42.356Z,10.33
2019-01-14T22:12:31.501Z,7.47
2019-01-14T22:15:01.829Z,4.80
2019-01-14T22:17:31.910Z,8.23
2019-01-14T22:20:01.808Z,7.00
2019-01-14T22:22:31.987Z,6.83
2019-01-14T22:25:01.832Z,4.87
2019-01-14T22:27:32.072Z,6.40
2019-01-14T22:30:02.402Z,10.03
2019-01-14T22:32:32.281Z,4.80
2019-01-14T22:35:02.142Z,3.83
2019-01-14T22:37:32.333Z,1.47
2019-01-14T22:40:02.292Z,4.33
2019-01-14T22:42:32.247Z,3.03
2019-01-14T22:45:02.541Z,6.00
2019-01-14T22:47:35.484Z,4.17
2019-01-14T22:50:07.206Z,4.37
2019-01-14T22:52:37.398Z,4.40
2019-01-14T22:55:07.704Z,5.33
2019-01-14T22:57:40.755Z,4.90
2019-01-14T23:00:58.799Z,5.53
2019-01-14T23:03:28.742Z,5.10
2019-01-14T23:05:58.843Z,5.73
2019-01-14T23:08:28.683Z,6.47
2019-01-14T23:10:58.824Z,5.80
2019-01-14T23:13:28.977Z,5.40
2019-01-14T23:16:18.273Z,6.83
2019-01-14T23:19:29.916Z,9.67
2019-01-14T23:25:43.843Z,5.43
2019-01-14T23:28:44.785Z,7.00
2019-01-14T23:31:23.353Z,4.00
2019-01-14T23:34:12.278Z,5.87
2019-01-14T23:37:01.345Z,7.93
2019-01-14T23:39:50.046Z,4.03
2019-01-14T23:42:31.136Z,5.83
2019-01-14T23:45:12.352Z,6.60
2019-01-14T23:47:42.781Z,6.37
2019-01-14T23:50:12.690Z,7.90
2019-01-14T23:52:42.446Z,7.00
2019-01-14T23:55:15.341Z,5.63
2019-01-14T23:57:45.140Z,5.77
